Time;durP1;ratioP1;P1;durP2;ratioP2;P2;SDS_P1;SDS_P2;PMS_P1;PMS_P2;Temp;Humidity;BMP_temperature;BMP_pressure;BME280_temperature;BME280_humidity;BME280_pressure;Samples;Min_cycle;Max_cycle;Signal;HPM_P1;HPM_P2
2023/12/22 00:01:53;;;;;;;2.43;0.50;;;7.90;99.90;;;;;;5031894;28;20165;-74
2023/12/22 00:04:19;;;;;;;1.80;0.50;;;7.70;99.90;;;;;;5032035;28;20697;-73
2023/12/22 00:06:48;;;;;;;1.40;0.50;;;7.60;99.90;;;;;;5032272;28;20634;-73
2023/12/22 00:09:13;;;;;;;2.85;0.60;;;7.40;99.90;;;;;;5032499;28;20188;-73
2023/12/22 00:11:39;;;;;;;1.57;0.47;;;7.30;99.90;;;;;;5049602;28;20173;-73
2023/12/22 00:14:05;;;;;;;1.80;0.60;;;7.20;99.90;;;;;;5050255;28;20573;-74
2023/12/22 00:16:30;;;;;;;1.93;0.50;;;7.10;99.90;;;;;;5042272;28;20176;-74
2023/12/22 00:18:57;;;;;;;3.50;0.80;;;7.00;99.90;;;;;;5036216;28;20694;-72
2023/12/22 00:21:23;;;;;;;3.30;0.90;;;7.00;99.90;;;;;;5053738;28;20176;-74
2023/12/22 00:23:48;;;;;;;3.53;0.90;;;7.00;99.90;;;;;;5043876;28;20216;-73
2023/12/22 00:26:15;;;;;;;3.40;0.90;;;6.90;99.90;;;;;;5039483;28;20181;-73
2023/12/22 00:28:41;;;;;;;2.45;0.77;;;6.90;99.90;;;;;;5016380;28;20505;-74
2023/12/22 00:31:07;;;;;;;3.28;0.70;;;7.00;99.90;;;;;;5015715;28;20173;-73
2023/12/22 00:33:33;;;;;;;4.38;0.80;;;7.00;99.90;;;;;;5033644;28;20174;-73
2023/12/22 00:35:59;;;;;;;3.77;0.93;;;7.00;99.90;;;;;;5034081;28;20585;-73
2023/12/22 00:38:24;;;;;;;3.83;0.87;;;7.10;99.90;;;;;;5023625;28;20578;-73
2023/12/22 00:40:50;;;;;;;10.00;1.20;;;7.10;99.90;;;;;;5016621;28;20702;-73
2023/12/22 00:43:16;;;;;;;2.50;0.70;;;7.20;99.90;;;;;;5015580;28;20178;-73
2023/12/22 00:45:41;;;;;;;4.23;0.80;;;7.20;99.90;;;;;;5016038;28;20373;-73
2023/12/22 00:48:07;;;;;;;3.33;0.80;;;7.30;99.90;;;;;;5033584;28;20208;-73
2023/12/22 00:50:33;;;;;;;4.23;0.90;;;7.30;99.90;;;;;;5050212;28;20222;-73
2023/12/22 00:52:58;;;;;;;3.10;0.97;;;7.40;99.90;;;;;;4999035;28;20185;-73
2023/12/22 00:55:24;;;;;;;5.60;0.97;;;7.40;99.90;;;;;;5033649;28;20288;-73
2023/12/22 00:57:50;;;;;;;4.53;0.90;;;7.50;99.90;;;;;;5015911;28;20186;-73
2023/12/22 01:00:16;;;;;;;2.57;0.90;;;7.60;99.90;;;;;;5033651;28;20192;-73
2023/12/22 01:02:42;;;;;;;2.95;0.60;;;7.60;99.90;;;;;;5032795;28;20610;-73
2023/12/22 01:05:08;;;;;;;6.30;0.80;;;7.60;99.90;;;;;;5015520;28;20213;-72
2023/12/22 01:07:33;;;;;;;3.43;0.80;;;7.70;99.90;;;;;;5033401;28;20592;-73
2023/12/22 01:10:01;;;;;;;2.70;0.70;;;7.70;99.90;;;;;;5015596;28;20213;-73
2023/12/22 01:12:28;;;;;;;3.63;0.70;;;7.70;99.90;;;;;;5032687;28;20170;-74
2023/12/22 01:14:55;;;;;;;4.82;0.85;;;7.80;99.90;;;;;;5041198;28;20202;-73
2023/12/22 01:17:21;;;;;;;7.82;1.05;;;7.80;99.90;;;;;;5015512;28;20181;-73
2023/12/22 01:19:46;;;;;;;1.97;0.83;;;7.80;99.90;;;;;;5033254;28;20184;-74
2023/12/22 01:22:12;;;;;;;4.30;0.97;;;7.90;99.90;;;;;;5015016;28;20343;-73
2023/12/22 01:24:40;;;;;;;5.27;1.63;;;7.90;99.90;;;;;;5014918;28;20220;-73
2023/12/22 01:27:07;;;;;;;3.15;1.20;;;7.90;99.90;;;;;;5032982;28;20571;-73
2023/12/22 01:29:32;;;;;;;4.95;1.52;;;7.90;99.90;;;;;;5032548;28;20239;-73
2023/12/22 01:31:58;;;;;;;4.60;0.73;;;8.00;99.90;;;;;;5026224;28;20169;-73
2023/12/22 01:34:24;;;;;;;4.77;1.00;;;8.00;99.90;;;;;;5019757;28;20214;-73
2023/12/22 01:36:49;;;;;;;5.37;0.90;;;8.00;99.90;;;;;;5023405;28;20263;-74
2023/12/22 01:39:15;;;;;;;3.50;0.80;;;8.10;99.90;;;;;;5032965;28;20186;-73
2023/12/22 01:41:41;;;;;;;6.32;0.90;;;8.10;99.90;;;;;;5032043;28;20596;-73
2023/12/22 01:44:07;;;;;;;2.97;0.70;;;8.10;99.90;;;;;;5015016;28;20216;-73
2023/12/22 01:46:34;;;;;;;4.80;0.90;;;8.10;99.90;;;;;;5015728;28;20622;-73
2023/12/22 01:49:02;;;;;;;4.60;1.25;;;8.10;99.90;;;;;;5023937;28;20186;-72
2023/12/22 01:51:31;;;;;;;1.83;0.70;;;8.10;99.90;;;;;;5015177;28;20169;-73
2023/12/22 01:53:57;;;;;;;4.18;0.80;;;8.10;99.90;;;;;;5032851;28;20205;-73
2023/12/22 01:56:23;;;;;;;2.57;0.90;;;8.10;99.90;;;;;;4999145;28;20188;-72
2023/12/22 01:58:52;;;;;;;1.85;0.80;;;8.10;99.90;;;;;;5034888;28;20584;-73
2023/12/22 02:01:20;;;;;;;2.90;0.90;;;8.10;99.90;;;;;;5037700;28;20200;-72
2023/12/22 02:03:52;;;;;;;4.70;1.30;;;8.10;99.90;;;;;;5032577;28;20205;-72
2023/12/22 02:06:19;;;;;;;6.18;0.80;;;8.10;99.90;;;;;;5014773;28;20170;-73
2023/12/22 02:08:47;;;;;;;4.82;1.00;;;8.10;99.90;;;;;;5024012;28;20191;-72
2023/12/22 02:11:31;;;;;;;3.03;0.98;;;8.10;99.90;;;;;;5040175;28;20702;-72
2023/12/22 02:13:57;;;;;;;4.30;1.20;;;8.10;99.90;;;;;;5023257;28;20229;-73
2023/12/22 02:16:39;;;;;;;3.00;0.60;;;8.00;99.90;;;;;;5014600;28;20264;-73
2023/12/22 02:19:30;;;;;;;6.75;1.45;;;7.90;99.90;;;;;;5043129;28;20587;-73
2023/12/22 02:22:06;;;;;;;3.83;0.90;;;7.90;99.90;;;;;;5066537;28;20265;-72
2023/12/22 02:24:32;;;;;;;4.65;0.88;;;7.90;99.90;;;;;;5018149;28;20217;-73
2023/12/22 02:27:05;;;;;;;2.35;0.90;;;7.80;99.90;;;;;;5014288;28;20228;-73
2023/12/22 02:29:43;;;;;;;4.05;0.80;;;7.70;99.90;;;;;;5014084;28;20257;-73
2023/12/22 02:32:15;;;;;;;3.80;0.80;;;7.70;99.90;;;;;;5042471;28;20181;-73
2023/12/22 02:34:43;;;;;;;4.18;1.25;;;7.70;99.90;;;;;;5024897;28;20738;-73
2023/12/22 02:37:10;;;;;;;5.72;1.20;;;7.70;99.90;;;;;;5031666;28;20173;-73
2023/12/22 02:39:36;;;;;;;4.32;0.80;;;7.70;99.90;;;;;;4997691;28;20173;-73
2023/12/22 02:42:05;;;;;;;7.50;1.10;;;7.70;99.90;;;;;;5013195;28;20174;-73
2023/12/22 02:44:31;;;;;;;4.43;0.98;;;7.80;99.90;;;;;;4997170;28;20713;-73
2023/12/22 02:46:57;;;;;;;6.05;1.00;;;7.80;99.90;;;;;;5022091;28;20205;-72
2023/12/22 02:49:22;;;;;;;5.53;1.30;;;7.80;99.90;;;;;;5013735;28;20212;-73
2023/12/22 02:51:48;;;;;;;7.13;1.37;;;7.80;99.90;;;;;;4996532;28;20594;-73
2023/12/22 02:54:14;;;;;;;5.97;1.20;;;7.90;99.90;;;;;;5031342;28;20705;-73
2023/12/22 02:56:42;;;;;;;7.77;1.10;;;7.90;99.90;;;;;;5031360;28;20201;-73
2023/12/22 02:59:09;;;;;;;7.43;1.30;;;7.90;99.90;;;;;;5038929;28;20535;-73
2023/12/22 03:01:35;;;;;;;5.82;1.05;;;7.90;99.90;;;;;;5030538;28;20181;-73
2023/12/22 03:04:00;;;;;;;3.77;1.10;;;7.90;99.90;;;;;;5021172;28;20205;-73
2023/12/22 03:06:26;;;;;;;6.43;1.10;;;7.90;99.90;;;;;;5013347;28;20264;-73
2023/12/22 03:08:52;;;;;;;5.97;1.20;;;7.90;99.90;;;;;;5013308;28;20554;-73
2023/12/22 03:11:17;;;;;;;4.80;0.87;;;7.90;99.90;;;;;;5012663;28;20178;-73
2023/12/22 03:13:43;;;;;;;6.30;1.03;;;7.90;99.90;;;;;;5030616;28;20244;-73
2023/12/22 03:16:09;;;;;;;5.30;1.03;;;7.90;99.90;;;;;;5013403;28;20181;-73
2023/12/22 03:18:37;;;;;;;5.57;1.53;;;7.90;99.90;;;;;;5013249;28;20266;-73
2023/12/22 03:21:03;;;;;;;3.00;1.58;;;7.80;99.90;;;;;;5004260;28;20684;-73
2023/12/22 03:23:28;;;;;;;3.77;1.00;;;7.80;99.90;;;;;;5030587;28;20293;-73
2023/12/22 03:25:54;;;;;;;5.57;1.00;;;7.80;99.90;;;;;;5013216;28;20181;-74
2023/12/22 03:28:20;;;;;;;3.13;0.80;;;7.80;99.90;;;;;;4996634;28;20261;-73
2023/12/22 03:30:45;;;;;;;3.67;0.80;;;7.80;99.90;;;;;;5013595;28;20169;-73
2023/12/22 03:33:11;;;;;;;3.97;0.90;;;7.70;99.90;;;;;;5011854;28;20248;-73
2023/12/22 03:35:37;;;;;;;6.03;0.90;;;7.80;99.90;;;;;;4996688;28;20190;-73
2023/12/22 03:38:03;;;;;;;5.10;1.07;;;7.80;99.90;;;;;;5012706;28;20227;-73
2023/12/22 03:40:29;;;;;;;4.70;1.25;;;7.80;99.90;;;;;;5019601;28;20199;-73
2023/12/22 03:42:55;;;;;;;4.78;1.40;;;7.80;99.90;;;;;;5048278;28;20184;-74
2023/12/22 03:45:21;;;;;;;10.27;1.67;;;7.90;99.90;;;;;;5042090;28;20200;-74
2023/12/22 03:47:47;;;;;;;6.80;1.40;;;7.90;99.90;;;;;;5032629;28;20256;-74
2023/12/22 03:50:12;;;;;;;6.37;1.73;;;8.00;99.90;;;;;;5032592;28;20176;-74
2023/12/22 03:52:38;;;;;;;5.20;1.37;;;8.10;99.90;;;;;;5015139;28;20623;-74
2023/12/22 03:55:04;;;;;;;9.67;2.43;;;8.10;99.90;;;;;;5050286;28;20282;-74
2023/12/22 03:57:30;;;;;;;9.43;1.70;;;8.20;99.90;;;;;;5032273;28;20543;-75
2023/12/22 03:59:56;;;;;;;10.03;1.67;;;8.30;99.90;;;;;;5050486;28;20180;-72
2023/12/22 04:02:22;;;;;;;6.73;1.40;;;8.40;99.90;;;;;;5049840;28;20674;-73
2023/12/22 04:04:47;;;;;;;8.23;1.80;;;8.50;99.90;;;;;;5048666;28;20201;-72
2023/12/22 04:07:13;;;;;;;10.33;2.90;;;8.50;99.90;;;;;;5016250;28;20220;-73
2023/12/22 04:09:39;;;;;;;6.43;1.40;;;8.60;99.90;;;;;;5050327;28;20261;-72
2023/12/22 04:12:05;;;;;;;7.10;1.63;;;8.80;99.90;;;;;;5048120;28;20173;-73
2023/12/22 04:14:31;;;;;;;6.85;1.77;;;8.70;99.90;;;;;;5048891;28;20526;-72
2023/12/22 04:16:57;;;;;;;6.70;2.03;;;8.80;99.90;;;;;;5032428;28;20195;-72
2023/12/22 04:19:22;;;;;;;7.70;1.80;;;8.80;99.90;;;;;;5032414;28;20243;-72
2023/12/22 04:21:48;;;;;;;10.37;1.40;;;8.80;99.90;;;;;;4998720;28;20189;-73
2023/12/22 04:24:14;;;;;;;6.07;1.03;;;8.80;99.90;;;;;;5050035;28;20208;-72
2023/12/22 04:26:40;;;;;;;8.07;1.17;;;8.80;99.90;;;;;;5032179;28;20180;-72
2023/12/22 04:29:06;;;;;;;4.13;0.90;;;8.80;99.90;;;;;;5032237;28;20228;-73
2023/12/22 04:31:31;;;;;;;5.20;1.20;;;8.80;99.90;;;;;;5031685;28;20653;-72
2023/12/22 04:33:57;;;;;;;7.63;2.30;;;8.90;99.90;;;;;;5049857;28;20291;-73
2023/12/22 04:36:23;;;;;;;5.23;1.27;;;8.90;99.90;;;;;;5032193;28;20177;-72
2023/12/22 04:38:48;;;;;;;11.60;2.10;;;8.90;99.90;;;;;;5048575;28;20326;-73
2023/12/22 04:41:14;;;;;;;7.50;1.60;;;8.80;99.90;;;;;;5031456;28;20177;-73
2023/12/22 04:43:40;;;;;;;9.80;1.27;;;8.80;99.90;;;;;;5032053;28;20200;-72
2023/12/22 04:46:05;;;;;;;6.83;1.27;;;8.80;99.90;;;;;;5024105;28;20256;-72
2023/12/22 04:48:33;;;;;;;5.67;1.33;;;8.80;99.90;;;;;;5031868;28;20184;-73
2023/12/22 04:50:58;;;;;;;6.05;1.27;;;8.80;99.90;;;;;;5030138;28;20184;-73
2023/12/22 04:53:24;;;;;;;9.10;1.30;;;8.80;99.90;;;;;;5008535;28;20229;-73
2023/12/22 04:55:50;;;;;;;3.57;0.90;;;8.80;99.90;;;;;;5031682;28;20580;-73
2023/12/22 04:58:15;;;;;;;6.80;1.90;;;8.70;99.90;;;;;;5031896;28;20173;-75
2023/12/22 05:00:41;;;;;;;7.73;1.87;;;8.80;99.90;;;;;;5032022;28;20651;-73
2023/12/22 05:03:07;;;;;;;4.60;1.47;;;8.80;99.90;;;;;;5032294;28;20601;-73
2023/12/22 05:05:32;;;;;;;8.30;1.60;;;8.80;99.90;;;;;;5035289;28;20576;-73
2023/12/22 05:07:58;;;;;;;9.83;2.50;;;8.80;99.90;;;;;;5035418;28;20238;-73
2023/12/22 05:10:24;;;;;;;7.53;1.88;;;8.80;99.90;;;;;;5035239;28;20252;-73
2023/12/22 05:12:50;;;;;;;6.43;1.37;;;8.80;99.90;;;;;;5034482;28;20699;-73
2023/12/22 05:15:16;;;;;;;7.07;3.30;;;8.90;99.90;;;;;;5035129;28;20204;-73
2023/12/22 05:17:42;;;;;;;3.83;1.17;;;8.90;99.90;;;;;;5053107;28;20192;-73
2023/12/22 05:20:09;;;;;;;5.57;2.03;;;8.90;99.90;;;;;;5032281;28;20584;-73
2023/12/22 05:22:37;;;;;;;8.63;1.73;;;9.00;99.90;;;;;;5029546;28;20366;-73
2023/12/22 05:25:03;;;;;;;6.60;1.35;;;9.00;99.90;;;;;;5017980;28;20231;-73
2023/12/22 05:27:28;;;;;;;11.18;1.50;;;9.10;99.90;;;;;;5035071;28;20177;-73
2023/12/22 05:29:54;;;;;;;8.13;1.87;;;9.20;99.90;;;;;;5045650;28;20180;-73
2023/12/22 05:32:20;;;;;;;7.07;1.70;;;9.20;99.90;;;;;;5052157;28;20248;-73
2023/12/22 05:34:45;;;;;;;10.27;2.23;;;9.30;99.90;;;;;;5051526;28;20274;-74
2023/12/22 05:37:11;;;;;;;12.97;2.50;;;9.30;99.90;;;;;;5052389;28;20192;-73
2023/12/22 05:39:37;;;;;;;9.20;1.77;;;9.40;99.90;;;;;;5052402;28;20177;-74
2023/12/22 05:42:03;;;;;;;8.97;1.40;;;9.50;99.90;;;;;;5050632;28;20587;-73
2023/12/22 05:44:30;;;;;;;11.13;2.93;;;9.50;99.90;;;;;;5043210;28;20205;-74
2023/12/22 05:46:59;;;;;;;5.55;1.38;;;9.60;99.90;;;;;;5050885;28;20226;-73
2023/12/22 05:49:25;;;;;;;7.05;1.33;;;9.60;99.90;;;;;;5034538;28;20702;-73
2023/12/22 05:51:51;;;;;;;6.60;1.17;;;9.70;99.90;;;;;;5033800;28;20169;-73
2023/12/22 05:54:19;;;;;;;9.03;1.53;;;9.70;99.90;;;;;;5050690;28;20720;-73
2023/12/22 05:56:45;;;;;;;11.48;1.95;;;9.80;99.90;;;;;;5044093;28;20250;-73
2023/12/22 05:59:10;;;;;;;15.20;2.50;;;9.80;99.90;;;;;;5022723;28;20190;-74
2023/12/22 06:01:36;;;;;;;5.50;1.53;;;9.90;99.90;;;;;;5038046;28;20181;-73
2023/12/22 06:04:03;;;;;;;9.03;1.50;;;10.00;99.90;;;;;;5033785;28;20296;-73
2023/12/22 06:06:29;;;;;;;7.22;1.30;;;9.90;99.90;;;;;;5032382;28;20173;-73
2023/12/22 06:08:55;;;;;;;6.78;1.80;;;10.00;99.90;;;;;;5014297;28;20181;-73
2023/12/22 06:11:22;;;;;;;8.63;1.80;;;10.00;99.90;;;;;;5022105;28;20377;-72
2023/12/22 06:13:48;;;;;;;15.65;2.05;;;10.10;99.90;;;;;;5014122;28;20304;-73
2023/12/22 06:16:14;;;;;;;9.70;2.13;;;10.10;99.90;;;;;;5014243;28;20256;-73
2023/12/22 06:18:41;;;;;;;5.97;1.58;;;10.10;99.90;;;;;;4997835;28;20170;-72
2023/12/22 06:21:08;;;;;;;9.68;1.85;;;10.10;99.90;;;;;;5031457;28;20265;-72
2023/12/22 06:23:34;;;;;;;11.00;1.90;;;10.20;99.90;;;;;;5013697;28;20189;-72
2023/12/22 06:26:02;;;;;;;6.20;1.43;;;10.20;99.90;;;;;;5030356;28;20519;-73
2023/12/22 06:28:27;;;;;;;8.20;2.22;;;10.20;99.90;;;;;;5014217;28;20174;-72
2023/12/22 06:30:54;;;;;;;6.33;1.63;;;10.20;99.90;;;;;;5031802;28;20268;-72
2023/12/22 06:33:20;;;;;;;8.27;1.38;;;10.30;99.90;;;;;;5031263;28;20746;-73
2023/12/22 06:35:45;;;;;;;6.70;1.38;;;10.20;99.90;;;;;;5021511;28;20216;-72
2023/12/22 06:38:11;;;;;;;6.97;1.60;;;10.30;99.90;;;;;;5039873;28;20219;-73
2023/12/22 06:40:37;;;;;;;6.60;1.60;;;10.30;99.90;;;;;;5013783;28;20231;-73
2023/12/22 06:43:04;;;;;;;7.20;1.60;;;10.30;99.90;;;;;;5030998;28;20192;-73
2023/12/22 06:45:30;;;;;;;7.13;1.50;;;10.40;99.90;;;;;;5013706;28;20699;-72
2023/12/22 06:47:55;;;;;;;6.63;1.80;;;10.40;99.90;;;;;;5013632;28;20193;-72
2023/12/22 06:50:21;;;;;;;9.47;2.50;;;10.40;99.90;;;;;;5031439;28;20235;-72
2023/12/22 06:52:47;;;;;;;9.30;4.00;;;10.40;99.90;;;;;;5013499;28;20173;-72
2023/12/22 06:55:12;;;;;;;3.63;1.03;;;10.50;99.90;;;;;;5013482;28;20197;-72
2023/12/22 06:57:38;;;;;;;3.23;0.87;;;10.50;99.90;;;;;;5013445;28;20188;-72
2023/12/22 07:00:05;;;;;;;4.30;0.83;;;10.40;99.90;;;;;;5039454;28;20181;-73
2023/12/22 07:02:30;;;;;;;2.30;0.65;;;10.40;99.90;;;;;;5012627;28;20207;-72
2023/12/22 07:05:21;;;;;;;2.80;0.73;;;10.40;99.90;;;;;;5013071;28;20233;-73
2023/12/22 07:07:47;;;;;;;4.10;1.15;;;10.40;99.90;;;;;;4997086;28;20177;-73
2023/12/22 07:10:12;;;;;;;4.73;1.63;;;10.30;99.90;;;;;;5033698;28;20173;-73
2023/12/22 07:12:39;;;;;;;5.50;0.93;;;10.30;99.90;;;;;;5026442;28;20242;-72
2023/12/22 07:15:06;;;;;;;3.78;0.70;;;10.30;99.90;;;;;;5030786;28;20205;-73
2023/12/22 07:17:33;;;;;;;3.58;0.88;;;10.20;99.90;;;;;;5013399;28;20203;-72
2023/12/22 07:19:58;;;;;;;3.90;0.80;;;10.20;99.90;;;;;;5030741;28;20182;-72
2023/12/22 07:22:24;;;;;;;4.93;1.13;;;10.10;99.90;;;;;;4996142;28;20180;-73
2023/12/22 07:24:52;;;;;;;3.03;1.00;;;10.10;99.90;;;;;;5012755;28;20228;-72
2023/12/22 07:27:18;;;;;;;9.05;1.08;;;10.10;99.90;;;;;;5030091;28;20205;-73
2023/12/22 07:29:44;;;;;;;5.27;1.23;;;10.00;99.90;;;;;;5032533;28;20192;-73
2023/12/22 07:32:10;;;;;;;6.10;1.47;;;10.00;99.90;;;;;;5023243;28;20594;-73
2023/12/22 07:34:35;;;;;;;7.00;1.77;;;9.90;99.90;;;;;;5024194;28;20204;-73
2023/12/22 07:37:01;;;;;;;7.00;1.37;;;9.90;99.90;;;;;;5005454;28;20268;-73
2023/12/22 07:39:27;;;;;;;11.27;2.10;;;9.90;99.90;;;;;;5025098;28;20705;-74
2023/12/22 07:41:52;;;;;;;4.63;1.40;;;9.90;99.90;;;;;;5011094;28;20657;-73
2023/12/22 07:44:18;;;;;;;9.03;1.70;;;9.90;99.90;;;;;;5030861;28;20197;-73
2023/12/22 07:46:45;;;;;;;11.25;2.25;;;9.90;99.90;;;;;;5011388;28;20278;-73
2023/12/22 07:49:12;;;;;;;9.90;2.20;;;9.80;99.90;;;;;;5024592;28;20205;-73
2023/12/22 07:51:38;;;;;;;14.23;3.00;;;9.80;99.90;;;;;;5034211;28;20181;-73
2023/12/22 07:54:04;;;;;;;6.23;1.73;;;9.80;99.90;;;;;;5030177;28;20565;-73
2023/12/22 07:56:29;;;;;;;10.07;2.47;;;9.80;99.90;;;;;;5018232;28;20227;-79
2023/12/22 07:58:55;;;;;;;7.70;3.30;;;9.80;99.90;;;;;;5025011;28;20968;-79
2023/12/22 08:01:21;;;;;;;12.87;2.60;;;9.80;99.90;;;;;;4996027;28;20189;-79
2023/12/22 08:03:46;;;;;;;9.93;2.63;;;9.80;99.90;;;;;;5012521;28;20252;-79
2023/12/22 08:06:14;;;;;;;15.27;3.40;;;9.80;99.90;;;;;;4996839;28;20611;-79
2023/12/22 08:08:39;;;;;;;16.90;3.65;;;9.90;99.90;;;;;;5019193;28;20175;-80
2023/12/22 08:11:05;;;;;;;24.03;4.40;;;9.90;99.90;;;;;;5040885;28;20173;-79
2023/12/22 08:13:31;;;;;;;17.13;3.60;;;9.90;99.90;;;;;;5021473;28;20169;-79
2023/12/22 08:15:56;;;;;;;8.40;2.20;;;9.90;99.90;;;;;;5030571;28;20207;-79
2023/12/22 08:18:22;;;;;;;11.30;2.13;;;10.00;99.90;;;;;;5004437;28;20579;-78
2023/12/22 08:20:49;;;;;;;13.87;1.97;;;9.90;99.90;;;;;;5037575;28;20173;-78
2023/12/22 08:23:15;;;;;;;8.85;2.47;;;9.90;99.90;;;;;;4997965;28;20217;-78
2023/12/22 08:25:41;;;;;;;10.27;3.17;;;9.90;99.90;;;;;;5013724;28;20248;-77
2023/12/22 08:28:07;;;;;;;13.75;4.72;;;9.90;99.90;;;;;;5039875;28;20603;-79
2023/12/22 08:30:33;;;;;;;15.63;5.00;;;9.90;99.90;;;;;;4997516;28;20265;-78
2023/12/22 08:32:59;;;;;;;20.10;4.88;;;9.90;99.90;;;;;;5032794;28;20188;-79
2023/12/22 08:35:25;;;;;;;14.63;4.77;;;9.90;99.90;;;;;;5014021;28;20672;-78
2023/12/22 08:37:50;;;;;;;14.70;3.70;;;9.90;99.90;;;;;;5051802;28;20189;-78
2023/12/22 08:40:16;;;;;;;15.30;3.77;;;10.00;99.90;;;;;;5069388;28;20177;-78
2023/12/22 08:42:42;;;;;;;16.13;3.93;;;10.00;99.90;;;;;;5016710;28;20173;-78
2023/12/22 08:45:08;;;;;;;15.73;2.93;;;10.00;99.90;;;;;;5058135;28;20691;-78
2023/12/22 08:47:33;;;;;;;14.75;3.85;;;10.10;99.90;;;;;;5044420;28;20197;-79
2023/12/22 08:49:59;;;;;;;13.43;4.60;;;10.10;99.90;;;;;;5044741;28;20615;-78
2023/12/22 08:52:25;;;;;;;17.30;3.50;;;10.10;99.90;;;;;;5024787;28;20196;-78
2023/12/22 08:54:50;;;;;;;19.33;4.40;;;10.20;99.90;;;;;;5039784;28;20219;-78
2023/12/22 08:57:16;;;;;;;14.00;3.40;;;10.20;99.90;;;;;;5038141;28;20173;-78
2023/12/22 08:59:42;;;;;;;19.87;3.10;;;10.20;99.90;;;;;;5054234;28;20322;-78
2023/12/22 09:02:07;;;;;;;15.33;3.53;;;10.30;99.90;;;;;;5002645;28;20188;-78
2023/12/22 09:04:33;;;;;;;14.38;3.35;;;10.30;99.90;;;;;;5054701;28;20614;-79
2023/12/22 09:06:59;;;;;;;13.60;2.90;;;10.40;99.90;;;;;;5030041;28;20181;-79
2023/12/22 09:09:26;;;;;;;8.73;3.05;;;10.40;99.90;;;;;;5036050;28;20169;-79
2023/12/22 09:11:53;;;;;;;9.75;2.63;;;10.50;99.90;;;;;;5028656;28;20181;-78
2023/12/22 09:14:19;;;;;;;14.07;3.78;;;10.50;99.90;;;;;;5035749;28;20193;-78
2023/12/22 09:16:45;;;;;;;17.00;3.70;;;10.50;99.90;;;;;;5053497;28;20663;-78
2023/12/22 09:19:11;;;;;;;14.05;2.50;;;10.50;99.90;;;;;;5053707;28;20263;-78
2023/12/22 09:21:36;;;;;;;14.67;3.40;;;10.60;99.90;;;;;;5049037;28;20670;-78
2023/12/22 09:24:02;;;;;;;6.00;2.30;;;10.60;99.90;;;;;;5052787;28;20552;-78
2023/12/22 09:26:28;;;;;;;12.93;2.67;;;10.60;99.90;;;;;;5035280;28;20173;-78
2023/12/22 09:28:55;;;;;;;13.23;3.23;;;10.60;99.90;;;;;;5053310;28;21241;-78
2023/12/22 09:31:22;;;;;;;7.88;2.35;;;10.70;99.90;;;;;;5034699;28;20192;-79
2023/12/22 09:33:48;;;;;;;10.18;2.35;;;10.70;99.90;;;;;;5053095;28;20609;-80
2023/12/22 09:36:14;;;;;;;11.55;3.40;;;10.80;99.90;;;;;;5034473;28;20220;-78
2023/12/22 09:38:41;;;;;;;12.97;3.67;;;10.80;99.90;;;;;;5044915;28;20174;-79
2023/12/22 09:41:07;;;;;;;13.60;3.13;;;10.90;99.90;;;;;;5031581;28;20266;-79
2023/12/22 09:43:36;;;;;;;15.63;2.90;;;10.90;99.90;;;;;;5031326;28;20196;-79
2023/12/22 09:46:03;;;;;;;11.30;2.30;;;10.90;99.90;;;;;;5048071;28;20215;-79
2023/12/22 09:48:30;;;;;;;16.00;2.83;;;11.00;99.90;;;;;;5026979;28;20188;-78
2023/12/22 09:50:57;;;;;;;10.88;2.55;;;11.00;99.90;;;;;;5049139;28;20587;-80
2023/12/22 09:53:24;;;;;;;10.55;2.75;;;11.10;99.90;;;;;;5041715;28;20181;-79
2023/12/22 09:55:50;;;;;;;11.02;2.78;;;11.10;99.90;;;;;;5048765;28;20177;-79
2023/12/22 09:58:17;;;;;;;9.00;2.70;;;11.20;99.90;;;;;;5052691;28;20173;-79
2023/12/22 10:00:43;;;;;;;10.10;3.65;;;11.20;99.90;;;;;;5036748;28;20259;-79
2023/12/22 10:03:12;;;;;;;8.00;2.17;;;11.30;99.90;;;;;;5019736;28;20264;-78
2023/12/22 10:05:40;;;;;;;9.32;2.92;;;11.30;99.90;;;;;;5055021;28;20643;-79
2023/12/22 10:08:06;;;;;;;10.13;3.20;;;11.30;99.90;;;;;;5045501;28;20201;-79
2023/12/22 10:10:33;;;;;;;7.18;1.90;;;11.30;99.90;;;;;;5034197;28;20619;-79
2023/12/22 10:12:59;;;;;;;5.43;1.52;;;11.40;99.90;;;;;;5055249;28;20543;-79
2023/12/22 10:15:26;;;;;;;3.85;1.00;;;11.40;99.90;;;;;;5052577;28;20197;-78
2023/12/22 10:17:54;;;;;;;7.45;2.13;;;11.40;99.90;;;;;;5032879;28;20215;-77
2023/12/22 10:20:19;;;;;;;4.93;1.15;;;11.50;99.90;;;;;;5033241;28;20720;-80
2023/12/22 10:22:46;;;;;;;6.03;1.23;;;11.50;99.90;;;;;;5047974;28;20177;-80
2023/12/22 10:25:16;;;;;;;3.17;1.55;;;11.50;99.90;;;;;;5048941;28;20208;-78
2023/12/22 10:27:43;;;;;;;3.05;1.00;;;11.50;99.90;;;;;;5033985;28;20259;-80
2023/12/22 10:30:10;;;;;;;3.80;0.90;;;11.50;99.90;;;;;;5032931;28;20181;-80
2023/12/22 10:32:41;;;;;;;3.28;1.15;;;11.50;99.90;;;;;;5053734;28;20653;-80
2023/12/22 10:35:08;;;;;;;3.75;1.00;;;11.50;99.90;;;;;;5054644;28;20201;-80
2023/12/22 10:37:34;;;;;;;3.47;1.40;;;11.50;99.90;;;;;;5036704;28;20165;-80
2023/12/22 10:40:03;;;;;;;2.13;0.90;;;11.50;99.90;;;;;;5053434;28;20548;-80
2023/12/22 10:42:29;;;;;;;6.60;1.80;;;11.50;99.90;;;;;;5052034;28;20201;-78
2023/12/22 10:44:56;;;;;;;2.33;1.40;;;11.50;99.90;;;;;;5034528;28;20213;-80
2023/12/22 10:47:22;;;;;;;4.00;2.13;;;11.50;99.90;;;;;;5050583;28;20580;-80
2023/12/22 10:49:48;;;;;;;5.60;1.83;;;11.50;99.90;;;;;;5052716;28;20586;-79
2023/12/22 10:52:18;;;;;;;2.35;1.10;;;11.50;99.90;;;;;;5045877;28;20257;-80
2023/12/22 10:54:43;;;;;;;4.88;1.45;;;11.50;99.90;;;;;;5009181;28;20184;-80
2023/12/22 10:57:10;;;;;;;5.60;1.40;;;11.50;99.90;;;;;;5036462;28;20191;-80
2023/12/22 10:59:47;;;;;;;2.23;1.00;;;11.50;99.90;;;;;;5048425;28;20201;-81
2023/12/22 11:02:17;;;;;;;4.13;2.22;;;11.50;99.90;;;;;;5036813;28;20641;-80
2023/12/22 11:04:56;;;;;;;5.63;1.10;;;11.50;99.90;;;;;;5052409;28;20207;-80
2023/12/22 11:07:26;;;;;;;2.75;1.55;;;11.50;99.90;;;;;;5052275;28;20588;-79
2023/12/22 11:09:56;;;;;;;2.33;0.80;;;11.50;99.90;;;;;;5033725;28;20264;-80
2023/12/22 11:12:23;;;;;;;2.50;1.00;;;11.50;99.90;;;;;;5041351;28;20582;-80
2023/12/22 11:14:50;;;;;;;2.30;0.90;;;11.60;99.90;;;;;;5033811;28;20193;-79
2023/12/22 11:17:20;;;;;;;3.30;0.90;;;11.60;99.90;;;;;;5051607;28;20591;-79
2023/12/22 11:19:50;;;;;;;2.63;0.90;;;11.70;99.90;;;;;;5035419;28;20614;-81
2023/12/22 11:22:20;;;;;;;2.50;1.13;;;11.70;99.90;;;;;;5058263;28;20619;-81
2023/12/22 11:24:48;;;;;;;4.70;1.10;;;11.70;99.90;;;;;;5038330;28;20215;-81
2023/12/22 11:27:18;;;;;;;4.20;1.73;;;11.80;99.90;;;;;;5045285;28;20615;-81
2023/12/22 11:29:50;;;;;;;5.00;2.65;;;11.80;99.90;;;;;;5058011;28;21152;-80
2023/12/22 11:32:17;;;;;;;3.60;2.22;;;11.80;99.90;;;;;;5059356;28;20177;-80
2023/12/22 11:34:44;;;;;;;3.57;2.23;;;11.80;99.90;;;;;;5040185;28;20203;-81
2023/12/22 11:37:13;;;;;;;4.00;1.70;;;11.80;99.90;;;;;;5037346;28;20590;-80
2023/12/22 11:39:43;;;;;;;3.30;1.30;;;11.90;99.90;;;;;;5019747;28;20192;-79
2023/12/22 11:42:16;;;;;;;5.53;1.90;;;11.90;99.90;;;;;;5044572;28;20674;-79
2023/12/22 11:44:43;;;;;;;4.70;2.45;;;11.90;99.90;;;;;;5050959;28;20704;-79
2023/12/22 11:47:10;;;;;;;5.00;1.90;;;12.00;99.90;;;;;;5000880;28;20260;-80
2023/12/22 11:49:37;;;;;;;3.88;2.45;;;12.00;99.90;;;;;;5052290;28;20960;-80
2023/12/22 11:52:16;;;;;;;7.07;2.93;;;12.10;99.90;;;;;;5052483;28;20180;-80
2023/12/22 11:54:49;;;;;;;3.73;1.53;;;12.10;99.90;;;;;;5033011;28;21254;-79
2023/12/22 11:57:27;;;;;;;5.50;2.60;;;12.20;99.90;;;;;;5050938;28;20670;-79
2023/12/22 12:00:03;;;;;;;5.07;2.67;;;12.30;99.90;;;;;;5050387;28;21331;-79
2023/12/22 12:02:40;;;;;;;3.20;2.17;;;12.40;99.90;;;;;;5032352;28;21176;-79
2023/12/22 12:05:08;;;;;;;2.60;1.50;;;12.40;99.90;;;;;;5041117;28;20654;-79
2023/12/22 12:07:45;;;;;;;3.27;1.30;;;12.40;99.90;;;;;;5029642;28;20177;-79
2023/12/22 12:10:12;;;;;;;4.80;2.07;;;12.40;99.90;;;;;;5028519;28;20587;-79
2023/12/22 12:12:38;;;;;;;5.33;2.70;;;12.50;99.90;;;;;;5024156;28;20620;-80
2023/12/22 12:15:15;;;;;;;7.90;4.00;;;12.60;99.90;;;;;;5067816;28;20650;-79
2023/12/22 12:17:42;;;;;;;3.83;2.87;;;12.60;99.90;;;;;;5041315;28;20183;-79
2023/12/22 12:20:10;;;;;;;3.93;3.50;;;12.70;99.90;;;;;;5028599;28;20587;-78
2023/12/22 12:22:38;;;;;;;3.80;2.80;;;12.70;99.90;;;;;;5053875;28;20616;-79
2023/12/22 12:25:09;;;;;;;8.70;3.13;;;12.70;99.90;;;;;;5053827;28;20647;-79
2023/12/22 12:27:38;;;;;;;4.17;2.20;;;12.70;99.90;;;;;;5050950;28;20595;-79
2023/12/22 12:30:11;;;;;;;4.33;1.77;;;12.70;99.90;;;;;;5031864;28;20587;-80
2023/12/22 12:32:37;;;;;;;2.73;1.50;;;12.70;99.90;;;;;;5027757;28;20637;-80
2023/12/22 12:35:04;;;;;;;4.03;1.80;;;12.70;99.90;;;;;;5052707;28;21017;-80
2023/12/22 12:37:29;;;;;;;3.80;2.43;;;12.80;99.90;;;;;;5036456;28;20605;-80
2023/12/22 12:40:01;;;;;;;3.27;2.00;;;12.80;99.90;;;;;;5057688;28;20603;-80
2023/12/22 12:42:30;;;;;;;3.30;1.87;;;12.80;99.90;;;;;;5056577;28;20617;-80
2023/12/22 12:44:56;;;;;;;3.30;1.40;;;12.80;99.90;;;;;;5038354;28;20651;-80
2023/12/22 12:47:23;;;;;;;3.90;1.83;;;12.80;99.90;;;;;;5063635;28;20605;-80
2023/12/22 12:49:59;;;;;;;4.30;1.37;;;12.90;99.90;;;;;;5028817;28;20173;-80